sensor_id;sensor_type;location;lat;lon;timestamp;P1;durP1;ratioP1;P2;durP2;ratioP2
12024;SDS011;6073;53.230;10.444;2023-12-20T00:02:13;9.43;;;3.40;;
12024;SDS011;6073;53.230;10.444;2023-12-20T00:04:38;5.45;;;2.45;;
12024;SDS011;6073;53.230;10.444;2023-12-20T00:07:04;9.82;;;3.00;;
12024;SDS011;6073;53.230;10.444;2023-12-20T00:09:29;12.48;;;3.28;;
12024;SDS011;6073;53.230;10.444;2023-12-20T00:11:55;11.90;;;3.55;;
12024;SDS011;6073;53.230;10.444;2023-12-20T00:14:20;9.82;;;2.60;;
12024;SDS011;6073;53.230;10.444;2023-12-20T00:16:46;6.82;;;2.65;;
12024;SDS011;6073;53.230;10.444;2023-12-20T00:19:12;14.38;;;3.22;;
12024;SDS011;6073;53.230;10.444;2023-12-20T00:21:37;8.20;;;2.38;;
12024;SDS011;6073;53.230;10.444;2023-12-20T00:24:03;7.22;;;2.63;;
12024;SDS011;6073;53.230;10.444;2023-12-20T00:26:29;6.32;;;2.47;;
12024;SDS011;6073;53.230;10.444;2023-12-20T00:28:54;7.28;;;2.70;;
12024;SDS011;6073;53.230;10.444;2023-12-20T00:31:20;8.30;;;2.40;;
12024;SDS011;6073;53.230;10.444;2023-12-20T00:33:45;12.90;;;2.67;;
12024;SDS011;6073;53.230;10.444;2023-12-20T00:36:12;13.23;;;2.88;;
12024;SDS011;6073;53.230;10.444;2023-12-20T00:38:37;8.55;;;2.42;;
12024;SDS011;6073;53.230;10.444;2023-12-20T00:41:03;9.90;;;2.47;;
12024;SDS011;6073;53.230;10.444;2023-12-20T00:43:28;10.10;;;2.30;;
12024;SDS011;6073;53.230;10.444;2023-12-20T00:45:54;8.88;;;2.05;;
12024;SDS011;6073;53.230;10.444;2023-12-20T00:48:20;10.75;;;2.20;;
12024;SDS011;6073;53.230;10.444;2023-12-20T00:50:46;8.13;;;3.97;;
12024;SDS011;6073;53.230;10.444;2023-12-20T00:53:12;7.35;;;4.07;;
12024;SDS011;6073;53.230;10.444;2023-12-20T00:55:37;11.05;;;2.20;;
12024;SDS011;6073;53.230;10.444;2023-12-20T00:58:03;10.45;;;2.65;;
12024;SDS011;6073;53.230;10.444;2023-12-20T01:00:28;7.47;;;2.47;;
12024;SDS011;6073;53.230;10.444;2023-12-20T01:02:54;7.10;;;1.92;;
12024;SDS011;6073;53.230;10.444;2023-12-20T01:05:19;10.23;;;2.72;;
12024;SDS011;6073;53.230;10.444;2023-12-20T01:07:48;15.75;;;2.83;;
12024;SDS011;6073;53.230;10.444;2023-12-20T01:10:14;9.80;;;2.42;;
12024;SDS011;6073;53.230;10.444;2023-12-20T01:12:39;9.80;;;2.47;;
12024;SDS011;6073;53.230;10.444;2023-12-20T01:15:05;7.28;;;2.15;;
12024;SDS011;6073;53.230;10.444;2023-12-20T01:17:31;10.65;;;2.60;;
12024;SDS011;6073;53.230;10.444;2023-12-20T01:19:57;10.80;;;2.22;;
12024;SDS011;6073;53.230;10.444;2023-12-20T01:22:23;10.55;;;2.28;;
12024;SDS011;6073;53.230;10.444;2023-12-20T01:24:48;9.23;;;1.83;;
12024;SDS011;6073;53.230;10.444;2023-12-20T01:27:14;5.28;;;2.58;;
12024;SDS011;6073;53.230;10.444;2023-12-20T01:29:40;8.35;;;2.40;;
12024;SDS011;6073;53.230;10.444;2023-12-20T01:32:05;13.25;;;2.38;;
12024;SDS011;6073;53.230;10.444;2023-12-20T01:34:31;10.50;;;2.28;;
12024;SDS011;6073;53.230;10.444;2023-12-20T01:36:57;6.22;;;2.33;;
12024;SDS011;6073;53.230;10.444;2023-12-20T01:39:22;12.55;;;2.55;;
12024;SDS011;6073;53.230;10.444;2023-12-20T01:41:48;7.75;;;2.17;;
12024;SDS011;6073;53.230;10.444;2023-12-20T01:44:14;12.70;;;3.17;;
12024;SDS011;6073;53.230;10.444;2023-12-20T01:46:39;8.23;;;3.05;;
12024;SDS011;6073;53.230;10.444;2023-12-20T01:49:05;10.13;;;2.28;;
12024;SDS011;6073;53.230;10.444;2023-12-20T01:51:31;7.22;;;2.50;;
12024;SDS011;6073;53.230;10.444;2023-12-20T01:53:58;10.50;;;2.78;;
12024;SDS011;6073;53.230;10.444;2023-12-20T01:56:25;6.57;;;2.45;;
12024;SDS011;6073;53.230;10.444;2023-12-20T01:58:53;11.85;;;2.90;;
12024;SDS011;6073;53.230;10.444;2023-12-20T02:01:19;7.07;;;2.08;;
12024;SDS011;6073;53.230;10.444;2023-12-20T02:03:45;6.43;;;2.20;;
12024;SDS011;6073;53.230;10.444;2023-12-20T02:06:11;7.80;;;2.30;;
12024;SDS011;6073;53.230;10.444;2023-12-20T02:08:37;6.70;;;2.30;;
12024;SDS011;6073;53.230;10.444;2023-12-20T02:11:02;13.48;;;2.42;;
12024;SDS011;6073;53.230;10.444;2023-12-20T02:13:28;6.22;;;2.85;;
12024;SDS011;6073;53.230;10.444;2023-12-20T02:15:57;10.52;;;3.03;;
12024;SDS011;6073;53.230;10.444;2023-12-20T02:18:22;6.88;;;2.40;;
12024;SDS011;6073;53.230;10.444;2023-12-20T02:20:48;11.43;;;2.97;;
12024;SDS011;6073;53.230;10.444;2023-12-20T02:23:14;14.05;;;3.03;;
12024;SDS011;6073;53.230;10.444;2023-12-20T02:25:39;9.57;;;2.97;;
12024;SDS011;6073;53.230;10.444;2023-12-20T02:28:05;10.70;;;2.80;;
12024;SDS011;6073;53.230;10.444;2023-12-20T02:30:31;10.82;;;2.80;;
12024;SDS011;6073;53.230;10.444;2023-12-20T02:32:57;15.48;;;3.53;;
12024;SDS011;6073;53.230;10.444;2023-12-20T02:35:24;9.80;;;3.53;;
12024;SDS011;6073;53.230;10.444;2023-12-20T02:37:50;11.70;;;4.25;;
12024;SDS011;6073;53.230;10.444;2023-12-20T02:40:16;8.45;;;3.95;;
12024;SDS011;6073;53.230;10.444;2023-12-20T02:42:41;8.02;;;4.13;;
12024;SDS011;6073;53.230;10.444;2023-12-20T02:45:07;10.27;;;4.18;;
12024;SDS011;6073;53.230;10.444;2023-12-20T02:47:33;9.18;;;3.80;;
12024;SDS011;6073;53.230;10.444;2023-12-20T02:49:58;8.73;;;3.75;;
12024;SDS011;6073;53.230;10.444;2023-12-20T02:52:24;12.82;;;4.13;;
12024;SDS011;6073;53.230;10.444;2023-12-20T02:54:50;10.18;;;4.65;;
12024;SDS011;6073;53.230;10.444;2023-12-20T02:57:15;12.38;;;4.40;;
12024;SDS011;6073;53.230;10.444;2023-12-20T02:59:41;11.65;;;4.10;;
12024;SDS011;6073;53.230;10.444;2023-12-20T03:02:07;12.48;;;4.68;;
12024;SDS011;6073;53.230;10.444;2023-12-20T03:04:32;12.57;;;4.65;;
12024;SDS011;6073;53.230;10.444;2023-12-20T03:06:58;15.23;;;5.40;;
12024;SDS011;6073;53.230;10.444;2023-12-20T03:09:23;12.65;;;4.57;;
12024;SDS011;6073;53.230;10.444;2023-12-20T03:11:49;7.88;;;3.83;;
12024;SDS011;6073;53.230;10.444;2023-12-20T03:14:14;8.38;;;4.60;;
12024;SDS011;6073;53.230;10.444;2023-12-20T03:16:40;10.98;;;4.78;;
12024;SDS011;6073;53.230;10.444;2023-12-20T03:19:05;12.73;;;4.88;;
12024;SDS011;6073;53.230;10.444;2023-12-20T03:21:31;10.63;;;4.18;;
12024;SDS011;6073;53.230;10.444;2023-12-20T03:23:56;9.25;;;4.10;;
12024;SDS011;6073;53.230;10.444;2023-12-20T03:26:22;7.95;;;3.92;;
12024;SDS011;6073;53.230;10.444;2023-12-20T03:28:48;11.77;;;3.83;;
12024;SDS011;6073;53.230;10.444;2023-12-20T03:31:14;14.60;;;3.92;;
12024;SDS011;6073;53.230;10.444;2023-12-20T03:33:39;5.93;;;3.15;;
12024;SDS011;6073;53.230;10.444;2023-12-20T03:36:05;8.57;;;3.95;;
12024;SDS011;6073;53.230;10.444;2023-12-20T03:38:31;7.63;;;3.38;;
12024;SDS011;6073;53.230;10.444;2023-12-20T03:40:56;6.18;;;3.42;;
12024;SDS011;6073;53.230;10.444;2023-12-20T03:43:22;7.65;;;3.80;;
12024;SDS011;6073;53.230;10.444;2023-12-20T03:45:47;12.68;;;3.33;;
12024;SDS011;6073;53.230;10.444;2023-12-20T03:48:13;5.97;;;3.17;;
12024;SDS011;6073;53.230;10.444;2023-12-20T03:50:38;10.30;;;3.65;;
12024;SDS011;6073;53.230;10.444;2023-12-20T03:53:04;9.85;;;2.67;;
12024;SDS011;6073;53.230;10.444;2023-12-20T03:55:29;10.82;;;3.53;;
12024;SDS011;6073;53.230;10.444;2023-12-20T03:57:55;14.20;;;3.55;;
12024;SDS011;6073;53.230;10.444;2023-12-20T04:00:20;6.10;;;2.83;;
12024;SDS011;6073;53.230;10.444;2023-12-20T04:02:46;9.00;;;3.20;;
12024;SDS011;6073;53.230;10.444;2023-12-20T04:05:11;7.18;;;2.85;;
12024;SDS011;6073;53.230;10.444;2023-12-20T04:07:37;8.45;;;2.55;;
12024;SDS011;6073;53.230;10.444;2023-12-20T04:10:03;6.95;;;2.97;;
12024;SDS011;6073;53.230;10.444;2023-12-20T04:12:30;7.45;;;2.60;;
12024;SDS011;6073;53.230;10.444;2023-12-20T04:14:56;10.43;;;2.95;;
12024;SDS011;6073;53.230;10.444;2023-12-20T04:17:22;4.38;;;2.60;;
12024;SDS011;6073;53.230;10.444;2023-12-20T04:19:48;10.00;;;2.67;;
12024;SDS011;6073;53.230;10.444;2023-12-20T04:22:14;8.07;;;2.63;;
12024;SDS011;6073;53.230;10.444;2023-12-20T04:24:39;7.07;;;2.40;;
12024;SDS011;6073;53.230;10.444;2023-12-20T04:27:07;5.68;;;3.15;;
12024;SDS011;6073;53.230;10.444;2023-12-20T04:29:33;8.77;;;2.63;;
12024;SDS011;6073;53.230;10.444;2023-12-20T04:31:58;8.00;;;3.00;;
12024;SDS011;6073;53.230;10.444;2023-12-20T04:34:24;6.80;;;2.75;;
12024;SDS011;6073;53.230;10.444;2023-12-20T04:36:49;8.23;;;2.60;;
12024;SDS011;6073;53.230;10.444;2023-12-20T04:39:15;7.70;;;2.60;;
12024;SDS011;6073;53.230;10.444;2023-12-20T04:41:41;9.95;;;3.13;;
12024;SDS011;6073;53.230;10.444;2023-12-20T04:44:06;8.38;;;2.85;;
12024;SDS011;6073;53.230;10.444;2023-12-20T04:46:32;10.68;;;3.20;;
12024;SDS011;6073;53.230;10.444;2023-12-20T04:48:57;15.23;;;3.50;;
12024;SDS011;6073;53.230;10.444;2023-12-20T04:51:23;16.67;;;3.20;;
12024;SDS011;6073;53.230;10.444;2023-12-20T04:53:49;11.05;;;2.90;;
12024;SDS011;6073;53.230;10.444;2023-12-20T04:56:14;7.68;;;2.72;;
12024;SDS011;6073;53.230;10.444;2023-12-20T04:58:40;8.95;;;2.50;;
12024;SDS011;6073;53.230;10.444;2023-12-20T05:01:08;6.15;;;2.30;;
12024;SDS011;6073;53.230;10.444;2023-12-20T05:03:34;7.75;;;3.35;;
12024;SDS011;6073;53.230;10.444;2023-12-20T05:05:59;12.23;;;3.45;;
12024;SDS011;6073;53.230;10.444;2023-12-20T05:08:25;9.82;;;3.17;;
12024;SDS011;6073;53.230;10.444;2023-12-20T05:10:56;11.48;;;3.30;;
12024;SDS011;6073;53.230;10.444;2023-12-20T05:13:22;10.10;;;2.85;;
12024;SDS011;6073;53.230;10.444;2023-12-20T05:15:48;6.07;;;2.47;;
12024;SDS011;6073;53.230;10.444;2023-12-20T05:18:13;8.45;;;2.97;;
12024;SDS011;6073;53.230;10.444;2023-12-20T05:20:39;8.77;;;3.05;;
12024;SDS011;6073;53.230;10.444;2023-12-20T05:23:05;7.38;;;3.20;;
12024;SDS011;6073;53.230;10.444;2023-12-20T05:25:31;12.00;;;2.75;;
12024;SDS011;6073;53.230;10.444;2023-12-20T05:27:57;15.80;;;3.33;;
12024;SDS011;6073;53.230;10.444;2023-12-20T05:30:22;9.27;;;3.08;;
12024;SDS011;6073;53.230;10.444;2023-12-20T05:32:48;9.65;;;3.05;;
12024;SDS011;6073;53.230;10.444;2023-12-20T05:35:13;12.98;;;3.47;;
12024;SDS011;6073;53.230;10.444;2023-12-20T05:37:40;13.32;;;4.38;;
12024;SDS011;6073;53.230;10.444;2023-12-20T05:40:06;8.20;;;4.07;;
12024;SDS011;6073;53.230;10.444;2023-12-20T05:42:35;13.80;;;3.60;;
12024;SDS011;6073;53.230;10.444;2023-12-20T05:45:01;8.88;;;3.15;;
12024;SDS011;6073;53.230;10.444;2023-12-20T05:47:26;10.73;;;4.07;;
12024;SDS011;6073;53.230;10.444;2023-12-20T05:49:52;10.98;;;3.60;;
12024;SDS011;6073;53.230;10.444;2023-12-20T05:52:18;8.95;;;2.90;;
12024;SDS011;6073;53.230;10.444;2023-12-20T05:54:43;9.95;;;3.35;;
12024;SDS011;6073;53.230;10.444;2023-12-20T05:57:09;16.08;;;3.10;;
12024;SDS011;6073;53.230;10.444;2023-12-20T05:59:34;13.55;;;3.67;;
12024;SDS011;6073;53.230;10.444;2023-12-20T06:02:00;8.43;;;3.10;;
12024;SDS011;6073;53.230;10.444;2023-12-20T06:04:26;11.63;;;3.85;;
12024;SDS011;6073;53.230;10.444;2023-12-20T06:06:51;8.50;;;2.97;;
12024;SDS011;6073;53.230;10.444;2023-12-20T06:09:17;8.95;;;3.05;;
12024;SDS011;6073;53.230;10.444;2023-12-20T06:11:42;7.78;;;2.63;;
12024;SDS011;6073;53.230;10.444;2023-12-20T06:14:08;9.98;;;3.35;;
12024;SDS011;6073;53.230;10.444;2023-12-20T06:16:33;6.93;;;3.53;;
12024;SDS011;6073;53.230;10.444;2023-12-20T06:18:59;9.68;;;3.30;;
12024;SDS011;6073;53.230;10.444;2023-12-20T06:21:24;10.02;;;3.40;;
12024;SDS011;6073;53.230;10.444;2023-12-20T06:23:50;6.80;;;3.25;;
12024;SDS011;6073;53.230;10.444;2023-12-20T06:26:15;12.00;;;3.70;;
12024;SDS011;6073;53.230;10.444;2023-12-20T06:28:41;11.90;;;3.75;;
12024;SDS011;6073;53.230;10.444;2023-12-20T06:31:06;9.25;;;3.83;;
12024;SDS011;6073;53.230;10.444;2023-12-20T06:33:32;7.18;;;3.45;;
12024;SDS011;6073;53.230;10.444;2023-12-20T06:35:57;10.82;;;4.90;;
12024;SDS011;6073;53.230;10.444;2023-12-20T06:38:23;8.10;;;3.58;;
12024;SDS011;6073;53.230;10.444;2023-12-20T06:40:48;15.18;;;3.70;;
12024;SDS011;6073;53.230;10.444;2023-12-20T06:43:14;5.80;;;3.42;;
12024;SDS011;6073;53.230;10.444;2023-12-20T06:45:39;16.05;;;4.07;;
12024;SDS011;6073;53.230;10.444;2023-12-20T06:48:05;9.40;;;3.75;;
12024;SDS011;6073;53.230;10.444;2023-12-20T06:50:31;8.13;;;3.20;;
12024;SDS011;6073;53.230;10.444;2023-12-20T06:52:57;12.45;;;3.70;;
12024;SDS011;6073;53.230;10.444;2023-12-20T06:55:22;10.23;;;3.17;;
12024;SDS011;6073;53.230;10.444;2023-12-20T06:57:48;9.82;;;3.42;;
12024;SDS011;6073;53.230;10.444;2023-12-20T07:00:14;8.65;;;3.35;;
12024;SDS011;6073;53.230;10.444;2023-12-20T07:02:40;9.48;;;3.15;;
12024;SDS011;6073;53.230;10.444;2023-12-20T07:05:05;8.90;;;3.90;;
12024;SDS011;6073;53.230;10.444;2023-12-20T07:07:31;8.32;;;3.65;;
12024;SDS011;6073;53.230;10.444;2023-12-20T07:09:57;11.10;;;3.03;;
12024;SDS011;6073;53.230;10.444;2023-12-20T07:12:22;8.75;;;3.63;;
12024;SDS011;6073;53.230;10.444;2023-12-20T07:14:48;8.60;;;3.38;;
12024;SDS011;6073;53.230;10.444;2023-12-20T07:17:13;7.05;;;3.25;;
12024;SDS011;6073;53.230;10.444;2023-12-20T07:19:40;8.32;;;3.03;;
12024;SDS011;6073;53.230;10.444;2023-12-20T07:22:06;9.10;;;3.05;;
12024;SDS011;6073;53.230;10.444;2023-12-20T07:24:32;10.55;;;3.50;;
12024;SDS011;6073;53.230;10.444;2023-12-20T07:27:01;7.35;;;3.22;;
12024;SDS011;6073;53.230;10.444;2023-12-20T07:29:27;12.57;;;3.28;;
12024;SDS011;6073;53.230;10.444;2023-12-20T07:31:53;10.57;;;3.22;;
12024;SDS011;6073;53.230;10.444;2023-12-20T07:34:22;14.73;;;4.15;;
12024;SDS011;6073;53.230;10.444;2023-12-20T07:36:47;12.55;;;3.08;;
12024;SDS011;6073;53.230;10.444;2023-12-20T07:39:13;10.70;;;3.20;;
12024;SDS011;6073;53.230;10.444;2023-12-20T07:41:39;7.55;;;3.15;;
12024;SDS011;6073;53.230;10.444;2023-12-20T07:44:05;9.57;;;3.05;;
12024;SDS011;6073;53.230;10.444;2023-12-20T07:46:31;8.60;;;2.80;;
12024;SDS011;6073;53.230;10.444;2023-12-20T07:48:57;8.55;;;2.90;;
12024;SDS011;6073;53.230;10.444;2023-12-20T07:51:22;8.98;;;2.80;;
12024;SDS011;6073;53.230;10.444;2023-12-20T07:53:48;10.77;;;3.72;;
12024;SDS011;6073;53.230;10.444;2023-12-20T07:56:17;10.98;;;4.70;;
12024;SDS011;6073;53.230;10.444;2023-12-20T07:58:44;11.43;;;3.03;;
12024;SDS011;6073;53.230;10.444;2023-12-20T08:01:10;5.65;;;2.50;;
12024;SDS011;6073;53.230;10.444;2023-12-20T08:03:36;11.07;;;3.05;;
12024;SDS011;6073;53.230;10.444;2023-12-20T08:06:02;11.73;;;3.00;;
12024;SDS011;6073;53.230;10.444;2023-12-20T08:08:28;9.93;;;2.80;;
12024;SDS011;6073;53.230;10.444;2023-12-20T08:10:54;13.07;;;4.18;;
12024;SDS011;6073;53.230;10.444;2023-12-20T08:13:19;9.02;;;2.90;;
12024;SDS011;6073;53.230;10.444;2023-12-20T08:15:50;10.30;;;2.70;;
12024;SDS011;6073;53.230;10.444;2023-12-20T08:18:15;8.70;;;3.13;;
12024;SDS011;6073;53.230;10.444;2023-12-20T08:20:41;13.57;;;2.90;;
12024;SDS011;6073;53.230;10.444;2023-12-20T08:23:06;13.05;;;3.78;;
12024;SDS011;6073;53.230;10.444;2023-12-20T08:25:32;8.63;;;2.92;;
12024;SDS011;6073;53.230;10.444;2023-12-20T08:27:57;13.45;;;4.75;;
12024;SDS011;6073;53.230;10.444;2023-12-20T08:30:23;10.70;;;3.53;;
12024;SDS011;6073;53.230;10.444;2023-12-20T08:32:48;10.75;;;4.05;;
12024;SDS011;6073;53.230;10.444;2023-12-20T08:35:14;12.00;;;3.15;;
12024;SDS011;6073;53.230;10.444;2023-12-20T08:37:39;9.85;;;2.92;;
12024;SDS011;6073;53.230;10.444;2023-12-20T08:40:05;8.45;;;3.13;;
12024;SDS011;6073;53.230;10.444;2023-12-20T08:42:31;13.20;;;4.05;;
12024;SDS011;6073;53.230;10.444;2023-12-20T08:44:57;14.85;;;3.80;;
12024;SDS011;6073;53.230;10.444;2023-12-20T08:47:23;16.88;;;3.35;;
12024;SDS011;6073;53.230;10.444;2023-12-20T08:49:49;9.13;;;4.07;;
12024;SDS011;6073;53.230;10.444;2023-12-20T08:52:15;10.52;;;3.35;;
12024;SDS011;6073;53.230;10.444;2023-12-20T08:54:40;11.57;;;3.28;;
12024;SDS011;6073;53.230;10.444;2023-12-20T08:57:06;9.32;;;3.08;;
12024;SDS011;6073;53.230;10.444;2023-12-20T08:59:32;11.25;;;3.50;;
12024;SDS011;6073;53.230;10.444;2023-12-20T09:01:58;11.80;;;3.55;;
12024;SDS011;6073;53.230;10.444;2023-12-20T09:04:23;13.23;;;3.58;;
12024;SDS011;6073;53.230;10.444;2023-12-20T09:06:49;10.35;;;4.30;;
12024;SDS011;6073;53.230;10.444;2023-12-20T09:09:14;14.40;;;3.33;;
12024;SDS011;6073;53.230;10.444;2023-12-20T09:11:40;12.18;;;3.20;;
12024;SDS011;6073;53.230;10.444;2023-12-20T09:14:06;13.85;;;3.92;;
12024;SDS011;6073;53.230;10.444;2023-12-20T09:16:32;10.25;;;2.80;;
12024;SDS011;6073;53.230;10.444;2023-12-20T09:18:58;14.98;;;3.88;;
12024;SDS011;6073;53.230;10.444;2023-12-20T09:21:23;6.82;;;3.00;;
12024;SDS011;6073;53.230;10.444;2023-12-20T09:23:49;12.82;;;3.45;;
12024;SDS011;6073;53.230;10.444;2023-12-20T09:26:15;10.23;;;2.78;;
12024;SDS011;6073;53.230;10.444;2023-12-20T09:28:40;10.68;;;2.85;;
12024;SDS011;6073;53.230;10.444;2023-12-20T09:31:06;11.68;;;3.60;;
12024;SDS011;6073;53.230;10.444;2023-12-20T09:33:32;15.77;;;3.50;;
12024;SDS011;6073;53.230;10.444;2023-12-20T09:35:58;11.95;;;4.20;;
12024;SDS011;6073;53.230;10.444;2023-12-20T09:38:24;15.40;;;3.63;;
12024;SDS011;6073;53.230;10.444;2023-12-20T09:40:50;10.93;;;3.20;;
12024;SDS011;6073;53.230;10.444;2023-12-20T09:43:15;10.02;;;3.58;;
12024;SDS011;6073;53.230;10.444;2023-12-20T09:45:45;8.88;;;3.60;;
12024;SDS011;6073;53.230;10.444;2023-12-20T09:48:12;10.90;;;3.25;;
12024;SDS011;6073;53.230;10.444;2023-12-20T09:50:39;11.73;;;3.90;;
12024;SDS011;6073;53.230;10.444;2023-12-20T09:53:05;13.32;;;3.30;;
12024;SDS011;6073;53.230;10.444;2023-12-20T09:55:34;10.13;;;3.38;;
12024;SDS011;6073;53.230;10.444;2023-12-20T09:58:01;10.55;;;3.28;;
12024;SDS011;6073;53.230;10.444;2023-12-20T10:00:27;10.48;;;3.55;;
12024;SDS011;6073;53.230;10.444;2023-12-20T10:02:59;6.95;;;3.28;;
12024;SDS011;6073;53.230;10.444;2023-12-20T10:05:31;8.23;;;3.33;;
12024;SDS011;6073;53.230;10.444;2023-12-20T10:07:58;11.50;;;3.22;;
12024;SDS011;6073;53.230;10.444;2023-12-20T10:10:25;10.90;;;2.60;;
12024;SDS011;6073;53.230;10.444;2023-12-20T10:13:00;9.55;;;3.20;;
12024;SDS011;6073;53.230;10.444;2023-12-20T10:15:33;8.43;;;2.58;;
12024;SDS011;6073;53.230;10.444;2023-12-20T10:18:00;3.28;;;1.48;;
12024;SDS011;6073;53.230;10.444;2023-12-20T10:20:26;4.63;;;1.70;;
12024;SDS011;6073;53.230;10.444;2023-12-20T10:22:54;2.78;;;1.23;;
12024;SDS011;6073;53.230;10.444;2023-12-20T10:30:37;2.35;;;1.30;;
12024;SDS011;6073;53.230;10.444;2023-12-20T10:33:05;5.32;;;1.25;;
12024;SDS011;6073;53.230;10.444;2023-12-20T10:35:31;7.65;;;1.63;;
12024;SDS011;6073;53.230;10.444;2023-12-20T10:37:57;3.97;;;1.33;;
12024;SDS011;6073;53.230;10.444;2023-12-20T10:40:25;3.50;;;1.35;;
12024;SDS011;6073;53.230;10.444;2023-12-20T10:42:52;6.45;;;1.58;;
12024;SDS011;6073;53.230;10.444;2023-12-20T10:45:19;3.22;;;1.30;;
12024;SDS011;6073;53.230;10.444;2023-12-20T10:47:46;2.70;;;1.42;;
12024;SDS011;6073;53.230;10.444;2023-12-20T10:50:12;2.35;;;0.90;;
12024;SDS011;6073;53.230;10.444;2023-12-20T10:52:37;3.63;;;0.90;;
12024;SDS011;6073;53.230;10.444;2023-12-20T10:55:03;2.17;;;0.90;;
12024;SDS011;6073;53.230;10.444;2023-12-20T10:57:30;0.80;;;0.60;;
12024;SDS011;6073;53.230;10.444;2023-12-20T10:59:55;3.58;;;1.00;;
12024;SDS011;6073;53.230;10.444;2023-12-20T11:02:29;1.08;;;0.57;;
12024;SDS011;6073;53.230;10.444;2023-12-20T11:08:14;3.85;;;1.20;;
12024;SDS011;6073;53.230;10.444;2023-12-20T11:13:40;0.80;;;0.35;;
12024;SDS011;6073;53.230;10.444;2023-12-20T11:16:09;3.03;;;0.90;;
12024;SDS011;6073;53.230;10.444;2023-12-20T11:18:34;2.40;;;0.65;;
12024;SDS011;6073;53.230;10.444;2023-12-20T11:21:01;2.05;;;0.57;;
12024;SDS011;6073;53.230;10.444;2023-12-20T11:23:30;2.03;;;1.20;;
12024;SDS011;6073;53.230;10.444;2023-12-20T11:25:59;0.55;;;0.55;;
12024;SDS011;6073;53.230;10.444;2023-12-20T11:28:25;4.57;;;1.00;;
12024;SDS011;6073;53.230;10.444;2023-12-20T11:30:54;2.42;;;0.80;;
12024;SDS011;6073;53.230;10.444;2023-12-20T11:33:22;2.17;;;1.02;;
12024;SDS011;6073;53.230;10.444;2023-12-20T11:35:48;4.65;;;1.02;;
12024;SDS011;6073;53.230;10.444;2023-12-20T11:38:14;3.00;;;1.27;;
12024;SDS011;6073;53.230;10.444;2023-12-20T11:40:41;5.78;;;1.08;;
12024;SDS011;6073;53.230;10.444;2023-12-20T11:43:07;4.30;;;1.73;;
12024;SDS011;6073;53.230;10.444;2023-12-20T11:45:33;3.70;;;0.95;;
12024;SDS011;6073;53.230;10.444;2023-12-20T11:48:00;2.72;;;0.75;;
12024;SDS011;6073;53.230;10.444;2023-12-20T11:50:27;2.83;;;1.33;;
12024;SDS011;6073;53.230;10.444;2023-12-20T11:52:54;3.08;;;1.00;;
12024;SDS011;6073;53.230;10.444;2023-12-20T11:55:23;1.80;;;0.85;;
12024;SDS011;6073;53.230;10.444;2023-12-20T11:57:50;3.30;;;1.05;;
12024;SDS011;6073;53.230;10.444;2023-12-20T12:00:16;3.78;;;1.05;;
12024;SDS011;6073;53.230;10.444;2023-12-20T12:02:42;5.43;;;1.90;;
12024;SDS011;6073;53.230;10.444;2023-12-20T12:05:08;4.22;;;1.35;;
12024;SDS011;6073;53.230;10.444;2023-12-20T12:07:34;2.20;;;1.13;;
12024;SDS011;6073;53.230;10.444;2023-12-20T12:10:00;5.25;;;1.13;;
12024;SDS011;6073;53.230;10.444;2023-12-20T12:12:25;4.05;;;1.40;;
12024;SDS011;6073;53.230;10.444;2023-12-20T12:14:52;8.15;;;1.63;;
12024;SDS011;6073;53.230;10.444;2023-12-20T12:17:19;4.75;;;1.27;;
12024;SDS011;6073;53.230;10.444;2023-12-20T12:19:45;6.63;;;1.73;;
12024;SDS011;6073;53.230;10.444;2023-12-20T12:22:11;4.22;;;1.27;;
12024;SDS011;6073;53.230;10.444;2023-12-20T12:24:39;4.93;;;1.30;;
12024;SDS011;6073;53.230;10.444;2023-12-20T12:27:05;6.88;;;1.58;;
12024;SDS011;6073;53.230;10.444;2023-12-20T12:29:32;8.63;;;1.73;;
12024;SDS011;6073;53.230;10.444;2023-12-20T12:31:58;4.43;;;1.33;;
12024;SDS011;6073;53.230;10.444;2023-12-20T12:34:24;2.25;;;1.30;;
12024;SDS011;6073;53.230;10.444;2023-12-20T12:36:52;4.00;;;1.33;;
12024;SDS011;6073;53.230;10.444;2023-12-20T12:39:18;7.25;;;1.95;;
12024;SDS011;6073;53.230;10.444;2023-12-20T12:41:44;7.32;;;1.67;;
12024;SDS011;6073;53.230;10.444;2023-12-20T12:44:09;5.70;;;1.42;;
12024;SDS011;6073;53.230;10.444;2023-12-20T12:46:35;4.93;;;1.27;;
12024;SDS011;6073;53.230;10.444;2023-12-20T12:49:00;3.40;;;1.48;;
12024;SDS011;6073;53.230;10.444;2023-12-20T12:51:26;1.55;;;1.23;;
12024;SDS011;6073;53.230;10.444;2023-12-20T12:53:51;5.35;;;1.23;;
12024;SDS011;6073;53.230;10.444;2023-12-20T12:56:17;5.28;;;1.88;;
12024;SDS011;6073;53.230;10.444;2023-12-20T12:58:43;3.30;;;1.33;;
12024;SDS011;6073;53.230;10.444;2023-12-20T13:01:09;2.85;;;1.17;;
12024;SDS011;6073;53.230;10.444;2023-12-20T13:03:34;7.53;;;1.63;;
12024;SDS011;6073;53.230;10.444;2023-12-20T13:06:00;5.80;;;1.77;;
12024;SDS011;6073;53.230;10.444;2023-12-20T13:08:26;4.07;;;1.60;;
12024;SDS011;6073;53.230;10.444;2023-12-20T13:10:53;6.95;;;1.38;;
12024;SDS011;6073;53.230;10.444;2023-12-20T13:13:19;3.42;;;1.02;;
12024;SDS011;6073;53.230;10.444;2023-12-20T13:15:44;4.88;;;1.27;;
12024;SDS011;6073;53.230;10.444;2023-12-20T13:18:15;1.80;;;1.13;;
12024;SDS011;6073;53.230;10.444;2023-12-20T13:20:42;15.52;;;1.77;;
12024;SDS011;6073;53.230;10.444;2023-12-20T13:23:07;2.25;;;1.45;;
12024;SDS011;6073;53.230;10.444;2023-12-20T13:25:33;4.97;;;1.40;;
12024;SDS011;6073;53.230;10.444;2023-12-20T13:27:58;4.90;;;1.00;;
12024;SDS011;6073;53.230;10.444;2023-12-20T13:30:24;4.22;;;1.30;;
12024;SDS011;6073;53.230;10.444;2023-12-20T13:32:50;2.90;;;1.15;;
12024;SDS011;6073;53.230;10.444;2023-12-20T13:35:15;5.97;;;1.73;;
12024;SDS011;6073;53.230;10.444;2023-12-20T13:37:41;5.30;;;1.10;;
12024;SDS011;6073;53.230;10.444;2023-12-20T13:40:07;5.60;;;1.65;;
12024;SDS011;6073;53.230;10.444;2023-12-20T13:42:33;4.80;;;1.77;;
12024;SDS011;6073;53.230;10.444;2023-12-20T13:44:58;4.18;;;1.50;;
12024;SDS011;6073;53.230;10.444;2023-12-20T13:47:24;7.55;;;1.88;;
12024;SDS011;6073;53.230;10.444;2023-12-20T13:49:49;5.07;;;1.70;;
12024;SDS011;6073;53.230;10.444;2023-12-20T13:52:14;5.40;;;1.50;;
12024;SDS011;6073;53.230;10.444;2023-12-20T13:54:41;8.57;;;2.13;;
12024;SDS011;6073;53.230;10.444;2023-12-20T13:57:06;9.60;;;2.13;;
12024;SDS011;6073;53.230;10.444;2023-12-20T13:59:32;9.80;;;2.20;;
12024;SDS011;6073;53.230;10.444;2023-12-20T14:01:57;6.15;;;1.70;;
12024;SDS011;6073;53.230;10.444;2023-12-20T14:04:23;9.40;;;2.53;;
12024;SDS011;6073;53.230;10.444;2023-12-20T14:06:48;8.55;;;1.92;;
12024;SDS011;6073;53.230;10.444;2023-12-20T14:09:14;14.68;;;2.65;;
12024;SDS011;6073;53.230;10.444;2023-12-20T14:11:40;7.57;;;1.75;;
12024;SDS011;6073;53.230;10.444;2023-12-20T14:14:06;9.45;;;1.88;;
12024;SDS011;6073;53.230;10.444;2023-12-20T14:16:33;9.90;;;2.92;;
12024;SDS011;6073;53.230;10.444;2023-12-20T14:18:59;7.65;;;1.90;;
12024;SDS011;6073;53.230;10.444;2023-12-20T14:21:24;8.25;;;2.53;;
12024;SDS011;6073;53.230;10.444;2023-12-20T14:23:50;6.28;;;2.53;;
12024;SDS011;6073;53.230;10.444;2023-12-20T14:26:17;8.45;;;2.10;;
12024;SDS011;6073;53.230;10.444;2023-12-20T14:28:42;13.85;;;3.08;;
12024;SDS011;6073;53.230;10.444;2023-12-20T14:31:08;11.10;;;2.33;;
12024;SDS011;6073;53.230;10.444;2023-12-20T14:33:35;10.55;;;2.42;;
12024;SDS011;6073;53.230;10.444;2023-12-20T14:36:02;9.02;;;2.67;;
12024;SDS011;6073;53.230;10.444;2023-12-20T14:38:30;8.07;;;2.42;;
12024;SDS011;6073;53.230;10.444;2023-12-20T14:40:56;9.80;;;2.20;;
12024;SDS011;6073;53.230;10.444;2023-12-20T14:43:22;8.98;;;3.65;;
12024;SDS011;6073;53.230;10.444;2023-12-20T14:45:47;7.68;;;2.60;;
12024;SDS011;6073;53.230;10.444;2023-12-20T14:48:13;8.57;;;2.25;;